sensor_id;sensor_type;location;lat;lon;timestamp;P1;durP1;ratioP1;P2;durP2;ratioP2
3779;SDS011;1905;52.482;9.802;2023-03-30T00:02:05;8.93;;;6.37;;
3779;SDS011;1905;52.482;9.802;2023-03-30T00:04:35;6.13;;;5.37;;
3779;SDS011;1905;52.482;9.802;2023-03-30T00:07:05;7.83;;;5.50;;
3779;SDS011;1905;52.482;9.802;2023-03-30T00:09:33;12.93;;;7.40;;
3779;SDS011;1905;52.482;9.802;2023-03-30T00:12:07;9.20;;;7.03;;
3779;SDS011;1905;52.482;9.802;2023-03-30T00:14:35;7.47;;;6.00;;
3779;SDS011;1905;52.482;9.802;2023-03-30T00:17:03;10.00;;;5.83;;
3779;SDS011;1905;52.482;9.802;2023-03-30T00:19:30;9.30;;;6.93;;
3779;SDS011;1905;52.482;9.802;2023-03-30T00:21:58;13.07;;;8.37;;
3779;SDS011;1905;52.482;9.802;2023-03-30T00:24:27;8.37;;;6.70;;
3779;SDS011;1905;52.482;9.802;2023-03-30T00:26:55;9.80;;;6.97;;
3779;SDS011;1905;52.482;9.802;2023-03-30T00:29:25;8.77;;;5.80;;
3779;SDS011;1905;52.482;9.802;2023-03-30T00:31:53;11.23;;;7.30;;
3779;SDS011;1905;52.482;9.802;2023-03-30T00:34:22;10.23;;;5.93;;
3779;SDS011;1905;52.482;9.802;2023-03-30T00:36:49;9.47;;;6.53;;
3779;SDS011;1905;52.482;9.802;2023-03-30T00:39:19;10.53;;;6.43;;
3779;SDS011;1905;52.482;9.802;2023-03-30T00:41:49;9.47;;;6.43;;
3779;SDS011;1905;52.482;9.802;2023-03-30T00:47:24;8.00;;;6.17;;
3779;SDS011;1905;52.482;9.802;2023-03-30T00:49:52;8.33;;;5.10;;
3779;SDS011;1905;52.482;9.802;2023-03-30T00:52:20;10.47;;;6.97;;
3779;SDS011;1905;52.482;9.802;2023-03-30T00:54:50;10.53;;;6.50;;
3779;SDS011;1905;52.482;9.802;2023-03-30T00:57:22;13.23;;;6.53;;
3779;SDS011;1905;52.482;9.802;2023-03-30T00:59:53;10.43;;;6.20;;
3779;SDS011;1905;52.482;9.802;2023-03-30T01:02:22;9.90;;;6.60;;
3779;SDS011;1905;52.482;9.802;2023-03-30T01:04:51;11.30;;;5.87;;
3779;SDS011;1905;52.482;9.802;2023-03-30T01:07:22;7.00;;;6.30;;
3779;SDS011;1905;52.482;9.802;2023-03-30T01:09:50;9.53;;;5.57;;
3779;SDS011;1905;52.482;9.802;2023-03-30T01:12:18;6.60;;;5.53;;
3779;SDS011;1905;52.482;9.802;2023-03-30T01:14:48;7.40;;;5.00;;
3779;SDS011;1905;52.482;9.802;2023-03-30T01:17:17;5.97;;;5.27;;
3779;SDS011;1905;52.482;9.802;2023-03-30T01:20:00;7.50;;;5.60;;
3779;SDS011;1905;52.482;9.802;2023-03-30T01:23:12;6.43;;;5.67;;
3779;SDS011;1905;52.482;9.802;2023-03-30T01:25:58;6.70;;;5.73;;
3779;SDS011;1905;52.482;9.802;2023-03-30T01:28:49;6.43;;;5.00;;
3779;SDS011;1905;52.482;9.802;2023-03-30T01:31:35;8.63;;;5.87;;
3779;SDS011;1905;52.482;9.802;2023-03-30T01:34:25;8.70;;;5.43;;
3779;SDS011;1905;52.482;9.802;2023-03-30T01:37:16;6.20;;;4.67;;
3779;SDS011;1905;52.482;9.802;2023-03-30T01:40:05;8.27;;;5.53;;
3779;SDS011;1905;52.482;9.802;2023-03-30T01:42:37;10.00;;;6.30;;
3779;SDS011;1905;52.482;9.802;2023-03-30T01:45:12;6.57;;;5.37;;
3779;SDS011;1905;52.482;9.802;2023-03-30T01:47:47;7.23;;;5.80;;
3779;SDS011;1905;52.482;9.802;2023-03-30T01:50:21;6.43;;;4.90;;
3779;SDS011;1905;52.482;9.802;2023-03-30T01:52:53;7.43;;;5.20;;
3779;SDS011;1905;52.482;9.802;2023-03-30T01:55:28;8.17;;;4.97;;
3779;SDS011;1905;52.482;9.802;2023-03-30T01:58:01;6.33;;;5.10;;
3779;SDS011;1905;52.482;9.802;2023-03-30T02:00:38;12.53;;;5.03;;
3779;SDS011;1905;52.482;9.802;2023-03-30T02:03:10;5.00;;;4.30;;
3779;SDS011;1905;52.482;9.802;2023-03-30T02:05:40;5.60;;;4.63;;
3779;SDS011;1905;52.482;9.802;2023-03-30T02:08:10;7.17;;;5.53;;
3779;SDS011;1905;52.482;9.802;2023-03-30T02:10:42;5.50;;;4.80;;
3779;SDS011;1905;52.482;9.802;2023-03-30T02:13:12;9.00;;;5.37;;
3779;SDS011;1905;52.482;9.802;2023-03-30T02:15:43;5.03;;;4.53;;
3779;SDS011;1905;52.482;9.802;2023-03-30T02:18:13;8.23;;;5.40;;
3779;SDS011;1905;52.482;9.802;2023-03-30T02:20:41;7.43;;;5.17;;
3779;SDS011;1905;52.482;9.802;2023-03-30T02:23:09;7.73;;;5.37;;
3779;SDS011;1905;52.482;9.802;2023-03-30T02:25:36;8.57;;;5.20;;
3779;SDS011;1905;52.482;9.802;2023-03-30T02:28:07;4.10;;;3.70;;
3779;SDS011;1905;52.482;9.802;2023-03-30T02:30:37;9.83;;;4.73;;
3779;SDS011;1905;52.482;9.802;2023-03-30T02:33:07;8.33;;;4.67;;
3779;SDS011;1905;52.482;9.802;2023-03-30T02:35:48;5.43;;;4.87;;
3779;SDS011;1905;52.482;9.802;2023-03-30T02:38:24;5.77;;;3.80;;
3779;SDS011;1905;52.482;9.802;2023-03-30T02:41:22;5.40;;;4.10;;
3779;SDS011;1905;52.482;9.802;2023-03-30T02:44:04;4.43;;;3.93;;
3779;SDS011;1905;52.482;9.802;2023-03-30T02:46:46;5.17;;;4.17;;
3779;SDS011;1905;52.482;9.802;2023-03-30T02:49:35;7.77;;;4.80;;
3779;SDS011;1905;52.482;9.802;2023-03-30T02:52:20;4.13;;;3.73;;
3779;SDS011;1905;52.482;9.802;2023-03-30T02:55:01;9.13;;;4.93;;
3779;SDS011;1905;52.482;9.802;2023-03-30T02:57:41;5.40;;;4.53;;
3779;SDS011;1905;52.482;9.802;2023-03-30T03:00:40;5.77;;;4.80;;
3779;SDS011;1905;52.482;9.802;2023-03-30T03:03:17;5.90;;;4.47;;
3779;SDS011;1905;52.482;9.802;2023-03-30T03:05:51;7.33;;;6.63;;
3779;SDS011;1905;52.482;9.802;2023-03-30T03:08:27;5.30;;;4.20;;
3779;SDS011;1905;52.482;9.802;2023-03-30T03:10:56;5.10;;;4.40;;
3779;SDS011;1905;52.482;9.802;2023-03-30T03:13:28;4.87;;;4.07;;
3779;SDS011;1905;52.482;9.802;2023-03-30T03:15:57;5.40;;;4.10;;
3779;SDS011;1905;52.482;9.802;2023-03-30T03:18:29;6.43;;;3.20;;
3779;SDS011;1905;52.482;9.802;2023-03-30T03:20:58;5.63;;;5.10;;
3779;SDS011;1905;52.482;9.802;2023-03-30T03:23:25;9.53;;;4.13;;
3779;SDS011;1905;52.482;9.802;2023-03-30T03:25:54;4.60;;;4.10;;
3779;SDS011;1905;52.482;9.802;2023-03-30T03:28:22;9.10;;;4.00;;
3779;SDS011;1905;52.482;9.802;2023-03-30T03:30:54;4.10;;;3.70;;
3779;SDS011;1905;52.482;9.802;2023-03-30T03:33:25;5.60;;;4.00;;
3779;SDS011;1905;52.482;9.802;2023-03-30T03:36:03;6.43;;;4.50;;
3779;SDS011;1905;52.482;9.802;2023-03-30T03:38:33;6.40;;;4.20;;
3779;SDS011;1905;52.482;9.802;2023-03-30T03:41:01;6.47;;;4.13;;
3779;SDS011;1905;52.482;9.802;2023-03-30T03:43:30;4.40;;;4.00;;
3779;SDS011;1905;52.482;9.802;2023-03-30T03:45:58;3.90;;;3.57;;
3779;SDS011;1905;52.482;9.802;2023-03-30T03:48:27;4.73;;;3.50;;
3779;SDS011;1905;52.482;9.802;2023-03-30T03:50:55;5.93;;;4.70;;
3779;SDS011;1905;52.482;9.802;2023-03-30T03:53:29;4.63;;;3.23;;
3779;SDS011;1905;52.482;9.802;2023-03-30T03:56:01;4.80;;;3.93;;
3779;SDS011;1905;52.482;9.802;2023-03-30T03:58:30;5.57;;;3.93;;
3779;SDS011;1905;52.482;9.802;2023-03-30T04:00:58;5.43;;;3.60;;
3779;SDS011;1905;52.482;9.802;2023-03-30T04:03:28;7.63;;;4.30;;
3779;SDS011;1905;52.482;9.802;2023-03-30T04:05:57;8.37;;;3.73;;
3779;SDS011;1905;52.482;9.802;2023-03-30T04:08:25;5.13;;;3.60;;
3779;SDS011;1905;52.482;9.802;2023-03-30T04:11:03;5.00;;;3.80;;
3779;SDS011;1905;52.482;9.802;2023-03-30T04:13:48;7.70;;;4.50;;
3779;SDS011;1905;52.482;9.802;2023-03-30T04:16:30;4.30;;;3.87;;
3779;SDS011;1905;52.482;9.802;2023-03-30T04:19:24;4.97;;;4.40;;
3779;SDS011;1905;52.482;9.802;2023-03-30T04:22:25;4.47;;;4.00;;
3779;SDS011;1905;52.482;9.802;2023-03-30T04:25:17;4.97;;;3.90;;
3779;SDS011;1905;52.482;9.802;2023-03-30T04:28:06;8.73;;;3.53;;
3779;SDS011;1905;52.482;9.802;2023-03-30T04:31:01;6.87;;;3.90;;
3779;SDS011;1905;52.482;9.802;2023-03-30T04:34:01;5.13;;;4.10;;
3779;SDS011;1905;52.482;9.802;2023-03-30T04:36:57;4.30;;;3.90;;
3779;SDS011;1905;52.482;9.802;2023-03-30T04:39:31;5.43;;;3.50;;
3779;SDS011;1905;52.482;9.802;2023-03-30T04:42:12;3.83;;;3.50;;
3779;SDS011;1905;52.482;9.802;2023-03-30T04:44:47;7.43;;;4.53;;
3779;SDS011;1905;52.482;9.802;2023-03-30T04:47:32;5.67;;;3.80;;
3779;SDS011;1905;52.482;9.802;2023-03-30T04:50:20;4.30;;;3.90;;
3779;SDS011;1905;52.482;9.802;2023-03-30T04:53:08;5.47;;;3.30;;
3779;SDS011;1905;52.482;9.802;2023-03-30T04:55:54;4.90;;;3.80;;
3779;SDS011;1905;52.482;9.802;2023-03-30T04:58:33;11.20;;;3.27;;
3779;SDS011;1905;52.482;9.802;2023-03-30T05:01:18;7.33;;;3.73;;
3779;SDS011;1905;52.482;9.802;2023-03-30T05:04:02;4.10;;;3.37;;
3779;SDS011;1905;52.482;9.802;2023-03-30T05:06:48;5.47;;;3.30;;
3779;SDS011;1905;52.482;9.802;2023-03-30T05:09:31;4.10;;;3.33;;
3779;SDS011;1905;52.482;9.802;2023-03-30T05:12:22;4.63;;;3.50;;
3779;SDS011;1905;52.482;9.802;2023-03-30T05:15:10;4.60;;;3.60;;
3779;SDS011;1905;52.482;9.802;2023-03-30T05:17:48;4.30;;;3.03;;
3779;SDS011;1905;52.482;9.802;2023-03-30T05:20:39;3.80;;;3.50;;
3779;SDS011;1905;52.482;9.802;2023-03-30T05:23:30;5.20;;;3.57;;
3779;SDS011;1905;52.482;9.802;2023-03-30T05:26:15;6.17;;;3.60;;
3779;SDS011;1905;52.482;9.802;2023-03-30T05:29:03;7.23;;;2.80;;
3779;SDS011;1905;52.482;9.802;2023-03-30T05:31:38;5.47;;;3.30;;
3779;SDS011;1905;52.482;9.802;2023-03-30T05:34:19;6.53;;;3.70;;
3779;SDS011;1905;52.482;9.802;2023-03-30T05:36:54;3.77;;;3.43;;
3779;SDS011;1905;52.482;9.802;2023-03-30T05:39:34;7.50;;;4.23;;
3779;SDS011;1905;52.482;9.802;2023-03-30T05:42:21;3.37;;;3.07;;
3779;SDS011;1905;52.482;9.802;2023-03-30T05:45:21;5.63;;;3.27;;
3779;SDS011;1905;52.482;9.802;2023-03-30T05:48:21;5.93;;;3.60;;
3779;SDS011;1905;52.482;9.802;2023-03-30T05:51:21;2.83;;;2.60;;
3779;SDS011;1905;52.482;9.802;2023-03-30T05:54:00;3.30;;;3.00;;
3779;SDS011;1905;52.482;9.802;2023-03-30T05:56:40;13.30;;;3.50;;
3779;SDS011;1905;52.482;9.802;2023-03-30T05:59:41;3.57;;;3.27;;
3779;SDS011;1905;52.482;9.802;2023-03-30T06:02:26;7.13;;;3.30;;
3779;SDS011;1905;52.482;9.802;2023-03-30T06:04:59;5.83;;;3.83;;
3779;SDS011;1905;52.482;9.802;2023-03-30T06:07:27;5.57;;;3.73;;
3779;SDS011;1905;52.482;9.802;2023-03-30T06:09:55;7.30;;;3.80;;
3779;SDS011;1905;52.482;9.802;2023-03-30T06:12:27;5.50;;;4.53;;
3779;SDS011;1905;52.482;9.802;2023-03-30T06:14:56;8.13;;;4.13;;
3779;SDS011;1905;52.482;9.802;2023-03-30T06:17:31;5.43;;;3.70;;
3779;SDS011;1905;52.482;9.802;2023-03-30T06:19:59;8.20;;;3.77;;
3779;SDS011;1905;52.482;9.802;2023-03-30T06:22:26;6.00;;;3.50;;
3779;SDS011;1905;52.482;9.802;2023-03-30T06:25:17;4.33;;;3.93;;
3779;SDS011;1905;52.482;9.802;2023-03-30T06:27:45;5.40;;;3.60;;
3779;SDS011;1905;52.482;9.802;2023-03-30T06:30:15;5.93;;;3.30;;
3779;SDS011;1905;52.482;9.802;2023-03-30T06:32:46;4.00;;;3.60;;
3779;SDS011;1905;52.482;9.802;2023-03-30T06:35:36;5.50;;;2.97;;
3779;SDS011;1905;52.482;9.802;2023-03-30T06:38:04;4.60;;;2.90;;
3779;SDS011;1905;52.482;9.802;2023-03-30T06:40:31;3.40;;;2.20;;
3779;SDS011;1905;52.482;9.802;2023-03-30T06:42:59;7.23;;;2.30;;
3779;SDS011;1905;52.482;9.802;2023-03-30T06:45:47;1.70;;;1.60;;
3779;SDS011;1905;52.482;9.802;2023-03-30T06:48:16;4.20;;;2.03;;
3779;SDS011;1905;52.482;9.802;2023-03-30T06:50:48;4.37;;;2.93;;
3779;SDS011;1905;52.482;9.802;2023-03-30T06:53:20;2.40;;;2.20;;
3779;SDS011;1905;52.482;9.802;2023-03-30T06:55:50;5.80;;;2.67;;
3779;SDS011;1905;52.482;9.802;2023-03-30T06:58:19;5.13;;;2.27;;
3779;SDS011;1905;52.482;9.802;2023-03-30T07:00:48;2.73;;;2.10;;
3779;SDS011;1905;52.482;9.802;2023-03-30T07:03:19;3.03;;;2.20;;
3779;SDS011;1905;52.482;9.802;2023-03-30T07:06:03;2.80;;;2.10;;
3779;SDS011;1905;52.482;9.802;2023-03-30T07:08:35;4.30;;;2.70;;
3779;SDS011;1905;52.482;9.802;2023-03-30T07:11:04;4.60;;;2.63;;
3779;SDS011;1905;52.482;9.802;2023-03-30T07:13:36;3.70;;;2.77;;
3779;SDS011;1905;52.482;9.802;2023-03-30T07:16:05;2.60;;;2.40;;
3779;SDS011;1905;52.482;9.802;2023-03-30T07:18:59;3.30;;;2.03;;
3779;SDS011;1905;52.482;9.802;2023-03-30T07:21:29;2.83;;;1.87;;
3779;SDS011;1905;52.482;9.802;2023-03-30T07:23:58;3.63;;;2.87;;
3779;SDS011;1905;52.482;9.802;2023-03-30T07:26:34;3.53;;;2.90;;
3779;SDS011;1905;52.482;9.802;2023-03-30T07:29:05;6.47;;;2.43;;
3779;SDS011;1905;52.482;9.802;2023-03-30T07:31:36;5.03;;;2.40;;
3779;SDS011;1905;52.482;9.802;2023-03-30T07:34:07;4.27;;;2.67;;
3779;SDS011;1905;52.482;9.802;2023-03-30T07:36:39;3.90;;;2.40;;
3779;SDS011;1905;52.482;9.802;2023-03-30T07:39:09;7.80;;;3.07;;
3779;SDS011;1905;52.482;9.802;2023-03-30T07:41:39;3.23;;;2.80;;
3779;SDS011;1905;52.482;9.802;2023-03-30T07:44:07;7.17;;;2.93;;
3779;SDS011;1905;52.482;9.802;2023-03-30T07:46:34;4.93;;;2.47;;
3779;SDS011;1905;52.482;9.802;2023-03-30T07:49:05;4.73;;;2.20;;
3779;SDS011;1905;52.482;9.802;2023-03-30T07:51:33;2.27;;;2.10;;
3779;SDS011;1905;52.482;9.802;2023-03-30T07:54:07;3.00;;;2.17;;
3779;SDS011;1905;52.482;9.802;2023-03-30T07:57:08;5.87;;;2.43;;
3779;SDS011;1905;52.482;9.802;2023-03-30T07:59:37;3.50;;;2.70;;
3779;SDS011;1905;52.482;9.802;2023-03-30T08:02:16;2.57;;;2.37;;
3779;SDS011;1905;52.482;9.802;2023-03-30T08:04:48;3.03;;;2.33;;
3779;SDS011;1905;52.482;9.802;2023-03-30T08:07:25;4.73;;;2.23;;
3779;SDS011;1905;52.482;9.802;2023-03-30T08:10:01;3.77;;;2.20;;
3779;SDS011;1905;52.482;9.802;2023-03-30T08:12:29;10.03;;;3.00;;
3779;SDS011;1905;52.482;9.802;2023-03-30T08:14:58;3.77;;;2.10;;
3779;SDS011;1905;52.482;9.802;2023-03-30T08:17:30;7.90;;;2.67;;
3779;SDS011;1905;52.482;9.802;2023-03-30T08:19:58;4.87;;;2.50;;
3779;SDS011;1905;52.482;9.802;2023-03-30T08:22:27;4.07;;;2.67;;
3779;SDS011;1905;52.482;9.802;2023-03-30T08:24:54;3.10;;;2.53;;
3779;SDS011;1905;52.482;9.802;2023-03-30T08:27:22;6.40;;;2.40;;
3779;SDS011;1905;52.482;9.802;2023-03-30T08:29:50;6.40;;;2.67;;
3779;SDS011;1905;52.482;9.802;2023-03-30T08:32:19;4.77;;;2.03;;
3779;SDS011;1905;52.482;9.802;2023-03-30T08:34:48;4.83;;;2.60;;
3779;SDS011;1905;52.482;9.802;2023-03-30T08:37:16;3.00;;;2.33;;
3779;SDS011;1905;52.482;9.802;2023-03-30T08:39:44;5.67;;;2.97;;
3779;SDS011;1905;52.482;9.802;2023-03-30T08:42:15;1.93;;;1.83;;
3779;SDS011;1905;52.482;9.802;2023-03-30T08:45:07;5.30;;;2.10;;
3779;SDS011;1905;52.482;9.802;2023-03-30T08:47:37;2.47;;;2.00;;
3779;SDS011;1905;52.482;9.802;2023-03-30T08:50:13;2.43;;;2.20;;
3779;SDS011;1905;52.482;9.802;2023-03-30T08:52:44;4.03;;;2.50;;
3779;SDS011;1905;52.482;9.802;2023-03-30T08:55:19;4.33;;;2.70;;
3779;SDS011;1905;52.482;9.802;2023-03-30T08:57:50;3.93;;;1.90;;
3779;SDS011;1905;52.482;9.802;2023-03-30T09:00:26;2.20;;;2.00;;
3779;SDS011;1905;52.482;9.802;2023-03-30T09:03:01;2.60;;;1.80;;
3779;SDS011;1905;52.482;9.802;2023-03-30T09:05:39;2.50;;;2.30;;
3779;SDS011;1905;52.482;9.802;2023-03-30T09:08:13;9.90;;;2.30;;
3779;SDS011;1905;52.482;9.802;2023-03-30T09:10:46;7.00;;;2.40;;
3779;SDS011;1905;52.482;9.802;2023-03-30T09:13:18;4.20;;;3.57;;
3779;SDS011;1905;52.482;9.802;2023-03-30T09:15:53;2.60;;;2.40;;
3779;SDS011;1905;52.482;9.802;2023-03-30T09:18:28;3.83;;;2.27;;
3779;SDS011;1905;52.482;9.802;2023-03-30T09:21:00;4.30;;;2.50;;
3779;SDS011;1905;52.482;9.802;2023-03-30T09:23:32;3.73;;;2.17;;
3779;SDS011;1905;52.482;9.802;2023-03-30T09:26:04;7.77;;;2.67;;
3779;SDS011;1905;52.482;9.802;2023-03-30T09:28:42;3.70;;;3.40;;
3779;SDS011;1905;52.482;9.802;2023-03-30T09:31:17;4.67;;;2.37;;
3779;SDS011;1905;52.482;9.802;2023-03-30T09:33:54;6.00;;;2.97;;
3779;SDS011;1905;52.482;9.802;2023-03-30T09:36:29;4.40;;;4.00;;
3779;SDS011;1905;52.482;9.802;2023-03-30T09:39:07;4.17;;;2.40;;
3779;SDS011;1905;52.482;9.802;2023-03-30T09:41:48;6.90;;;3.10;;
3779;SDS011;1905;52.482;9.802;2023-03-30T09:44:28;6.83;;;3.40;;
3779;SDS011;1905;52.482;9.802;2023-03-30T09:47:01;2.47;;;2.10;;
3779;SDS011;1905;52.482;9.802;2023-03-30T09:49:37;6.30;;;3.53;;
3779;SDS011;1905;52.482;9.802;2023-03-30T09:52:17;3.70;;;3.27;;
3779;SDS011;1905;52.482;9.802;2023-03-30T09:54:47;5.87;;;2.63;;
3779;SDS011;1905;52.482;9.802;2023-03-30T09:57:21;6.97;;;3.13;;
3779;SDS011;1905;52.482;9.802;2023-03-30T09:59:51;7.33;;;3.00;;
3779;SDS011;1905;52.482;9.802;2023-03-30T10:02:21;5.30;;;2.80;;
3779;SDS011;1905;52.482;9.802;2023-03-30T10:04:57;9.20;;;2.90;;
3779;SDS011;1905;52.482;9.802;2023-03-30T10:07:32;3.80;;;2.50;;
3779;SDS011;1905;52.482;9.802;2023-03-30T10:10:13;3.40;;;2.93;;
3779;SDS011;1905;52.482;9.802;2023-03-30T10:12:43;5.00;;;3.27;;
3779;SDS011;1905;52.482;9.802;2023-03-30T10:15:14;3.30;;;2.80;;
3779;SDS011;1905;52.482;9.802;2023-03-30T10:17:44;5.43;;;3.40;;
3779;SDS011;1905;52.482;9.802;2023-03-30T10:20:23;6.97;;;2.67;;
3779;SDS011;1905;52.482;9.802;2023-03-30T10:22:55;4.37;;;3.10;;
3779;SDS011;1905;52.482;9.802;2023-03-30T10:25:27;3.60;;;2.33;;
3779;SDS011;1905;52.482;9.802;2023-03-30T10:27:59;5.50;;;2.53;;
3779;SDS011;1905;52.482;9.802;2023-03-30T10:30:29;5.63;;;2.67;;
3779;SDS011;1905;52.482;9.802;2023-03-30T10:32:59;3.10;;;2.40;;
3779;SDS011;1905;52.482;9.802;2023-03-30T10:35:32;3.80;;;3.50;;
3779;SDS011;1905;52.482;9.802;2023-03-30T10:38:03;6.27;;;3.80;;
3779;SDS011;1905;52.482;9.802;2023-03-30T10:40:34;4.10;;;3.40;;
3779;SDS011;1905;52.482;9.802;2023-03-30T10:43:04;4.57;;;3.60;;
3779;SDS011;1905;52.482;9.802;2023-03-30T10:45:40;3.90;;;2.80;;
3779;SDS011;1905;52.482;9.802;2023-03-30T10:48:18;3.37;;;3.07;;
3779;SDS011;1905;52.482;9.802;2023-03-30T10:50:59;5.50;;;3.17;;
3779;SDS011;1905;52.482;9.802;2023-03-30T10:53:38;8.00;;;3.73;;
3779;SDS011;1905;52.482;9.802;2023-03-30T10:56:15;4.53;;;3.07;;
3779;SDS011;1905;52.482;9.802;2023-03-30T10:58:53;3.40;;;3.10;;
3779;SDS011;1905;52.482;9.802;2023-03-30T11:01:46;5.70;;;3.00;;
3779;SDS011;1905;52.482;9.802;2023-03-30T11:04:27;5.20;;;3.37;;
3779;SDS011;1905;52.482;9.802;2023-03-30T11:07:09;3.30;;;3.07;;
3779;SDS011;1905;52.482;9.802;2023-03-30T11:09:50;2.80;;;2.50;;
3779;SDS011;1905;52.482;9.802;2023-03-30T11:12:29;2.90;;;2.60;;
3779;SDS011;1905;52.482;9.802;2023-03-30T11:15:08;2.70;;;1.83;;
3779;SDS011;1905;52.482;9.802;2023-03-30T11:17:48;2.60;;;1.50;;
3779;SDS011;1905;52.482;9.802;2023-03-30T11:20:26;3.07;;;1.70;;
3779;SDS011;1905;52.482;9.802;2023-03-30T11:23:05;3.27;;;1.73;;
3779;SDS011;1905;52.482;9.802;2023-03-30T11:25:50;2.30;;;2.10;;
3779;SDS011;1905;52.482;9.802;2023-03-30T11:28:33;2.30;;;1.80;;
3779;SDS011;1905;52.482;9.802;2023-03-30T11:31:14;1.97;;;1.60;;
3779;SDS011;1905;52.482;9.802;2023-03-30T11:33:57;4.40;;;2.50;;
3779;SDS011;1905;52.482;9.802;2023-03-30T11:36:38;2.53;;;2.10;;
3779;SDS011;1905;52.482;9.802;2023-03-30T11:39:13;2.00;;;1.90;;
3779;SDS011;1905;52.482;9.802;2023-03-30T11:42:01;6.53;;;2.20;;
3779;SDS011;1905;52.482;9.802;2023-03-30T11:44:42;3.40;;;2.20;;
3779;SDS011;1905;52.482;9.802;2023-03-30T11:47:26;2.97;;;2.17;;
3779;SDS011;1905;52.482;9.802;2023-03-30T11:50:06;3.63;;;2.20;;
3779;SDS011;1905;52.482;9.802;2023-03-30T11:52:49;3.00;;;2.50;;
3779;SDS011;1905;52.482;9.802;2023-03-30T11:55:40;5.23;;;2.07;;
3779;SDS011;1905;52.482;9.802;2023-03-30T11:58:24;4.83;;;2.03;;
3779;SDS011;1905;52.482;9.802;2023-03-30T12:01:04;4.63;;;2.47;;
3779;SDS011;1905;52.482;9.802;2023-03-30T12:03:43;5.50;;;2.40;;
3779;SDS011;1905;52.482;9.802;2023-03-30T12:06:25;5.37;;;2.30;;
3779;SDS011;1905;52.482;9.802;2023-03-30T12:09:13;2.30;;;2.10;;
3779;SDS011;1905;52.482;9.802;2023-03-30T12:11:52;4.80;;;2.70;;
3779;SDS011;1905;52.482;9.802;2023-03-30T12:14:33;5.67;;;3.30;;
3779;SDS011;1905;52.482;9.802;2023-03-30T12:17:13;4.53;;;2.17;;
3779;SDS011;1905;52.482;9.802;2023-03-30T12:19:53;5.13;;;2.87;;
3779;SDS011;1905;52.482;9.802;2023-03-30T12:22:26;3.80;;;1.80;;
3779;SDS011;1905;52.482;9.802;2023-03-30T12:25:02;5.37;;;2.13;;
3779;SDS011;1905;52.482;9.802;2023-03-30T12:27:51;6.30;;;2.37;;
3779;SDS011;1905;52.482;9.802;2023-03-30T12:30:27;5.60;;;2.63;;
3779;SDS011;1905;52.482;9.802;2023-03-30T12:32:58;2.10;;;1.70;;
3779;SDS011;1905;52.482;9.802;2023-03-30T12:38:23;2.73;;;1.87;;
3779;SDS011;1905;52.482;9.802;2023-03-30T12:41:02;4.30;;;2.00;;
3779;SDS011;1905;52.482;9.802;2023-03-30T12:43:46;6.00;;;1.50;;
3779;SDS011;1905;52.482;9.802;2023-03-30T12:46:31;6.53;;;2.23;;
3779;SDS011;1905;52.482;9.802;2023-03-30T12:49:09;3.00;;;2.03;;
3779;SDS011;1905;52.482;9.802;2023-03-30T12:51:49;3.10;;;1.87;;
3779;SDS011;1905;52.482;9.802;2023-03-30T12:54:32;4.73;;;1.57;;
3779;SDS011;1905;52.482;9.802;2023-03-30T12:57:22;2.30;;;2.10;;
3779;SDS011;1905;52.482;9.802;2023-03-30T13:00:01;3.73;;;1.60;;
3779;SDS011;1905;52.482;9.802;2023-03-30T13:03:01;3.60;;;1.93;;
3779;SDS011;1905;52.482;9.802;2023-03-30T13:05:38;4.87;;;1.90;;
3779;SDS011;1905;52.482;9.802;2023-03-30T13:08:09;11.03;;;3.40;;
3779;SDS011;1905;52.482;9.802;2023-03-30T13:10:47;2.00;;;1.40;;
3779;SDS011;1905;52.482;9.802;2023-03-30T13:13:16;6.10;;;2.80;;
3779;SDS011;1905;52.482;9.802;2023-03-30T13:15:48;2.03;;;1.53;;
3779;SDS011;1905;52.482;9.802;2023-03-30T13:18:40;2.50;;;1.73;;
3779;SDS011;1905;52.482;9.802;2023-03-30T13:21:22;3.20;;;1.90;;
3779;SDS011;1905;52.482;9.802;2023-03-30T13:23:58;1.97;;;1.80;;
3779;SDS011;1905;52.482;9.802;2023-03-30T13:26:38;2.90;;;1.60;;
3779;SDS011;1905;52.482;9.802;2023-03-30T13:29:07;10.00;;;2.53;;
3779;SDS011;1905;52.482;9.802;2023-03-30T13:31:44;3.67;;;1.97;;
3779;SDS011;1905;52.482;9.802;2023-03-30T13:37:43;5.93;;;1.77;;
3779;SDS011;1905;52.482;9.802;2023-03-30T13:40:20;5.80;;;1.60;;
3779;SDS011;1905;52.482;9.802;2023-03-30T13:43:07;4.13;;;1.90;;
3779;SDS011;1905;52.482;9.802;2023-03-30T13:45:46;5.20;;;1.60;;
3779;SDS011;1905;52.482;9.802;2023-03-30T13:48:35;4.90;;;2.13;;
3779;SDS011;1905;52.482;9.802;2023-03-30T13:51:14;2.10;;;1.40;;
3779;SDS011;1905;52.482;9.802;2023-03-30T13:53:47;3.50;;;2.00;;
3779;SDS011;1905;52.482;9.802;2023-03-30T13:56:18;3.17;;;1.57;;
3779;SDS011;1905;52.482;9.802;2023-03-30T13:58:48;5.30;;;2.60;;
3779;SDS011;1905;52.482;9.802;2023-03-30T14:01:23;3.80;;;2.00;;
3779;SDS011;1905;52.482;9.802;2023-03-30T14:03:52;3.27;;;1.80;;
3779;SDS011;1905;52.482;9.802;2023-03-30T14:06:23;2.07;;;1.70;;
3779;SDS011;1905;52.482;9.802;2023-03-30T14:09:08;5.23;;;2.00;;
3779;SDS011;1905;52.482;9.802;2023-03-30T14:11:38;2.40;;;1.70;;
3779;SDS011;1905;52.482;9.802;2023-03-30T14:14:13;4.27;;;1.70;;
3779;SDS011;1905;52.482;9.802;2023-03-30T14:16:44;4.60;;;2.17;;
3779;SDS011;1905;52.482;9.802;2023-03-30T14:19:16;7.50;;;3.87;;
3779;SDS011;1905;52.482;9.802;2023-03-30T14:21:52;5.70;;;2.40;;
3779;SDS011;1905;52.482;9.802;2023-03-30T14:24:26;6.23;;;3.00;;
3779;SDS011;1905;52.482;9.802;2023-03-30T14:27:03;4.73;;;2.07;;
3779;SDS011;1905;52.482;9.802;2023-03-30T14:29:32;5.23;;;2.57;;
3779;SDS011;1905;52.482;9.802;2023-03-30T14:32:01;5.43;;;2.23;;
3779;SDS011;1905;52.482;9.802;2023-03-30T14:34:35;2.57;;;1.90;;
3779;SDS011;1905;52.482;9.802;2023-03-30T14:37:05;4.37;;;1.77;;
3779;SDS011;1905;52.482;9.802;2023-03-30T14:39:37;3.97;;;1.43;;
3779;SDS011;1905;52.482;9.802;2023-03-30T14:42:08;6.90;;;1.60;;
3779;SDS011;1905;52.482;9.802;2023-03-30T14:44:42;6.00;;;1.60;;
3779;SDS011;1905;52.482;9.802;2023-03-30T14:47:12;3.90;;;1.80;;
3779;SDS011;1905;52.482;9.802;2023-03-30T14:49:40;2.40;;;1.33;;
3779;SDS011;1905;52.482;9.802;2023-03-30T14:52:14;3.80;;;1.73;;
3779;SDS011;1905;52.482;9.802;2023-03-30T14:54:45;4.27;;;1.40;;
3779;SDS011;1905;52.482;9.802;2023-03-30T14:57:32;5.60;;;1.80;;
3779;SDS011;1905;52.482;9.802;2023-03-30T15:00:04;9.10;;;1.80;;
3779;SDS011;1905;52.482;9.802;2023-03-30T15:02:47;3.10;;;1.80;;
3779;SDS011;1905;52.482;9.802;2023-03-30T15:05:17;8.97;;;2.00;;
3779;SDS011;1905;52.482;9.802;2023-03-30T15:07:49;3.00;;;1.30;;
3779;SDS011;1905;52.482;9.802;2023-03-30T15:10:21;8.80;;;2.30;;
3779;SDS011;1905;52.482;9.802;2023-03-30T15:12:51;3.20;;;1.80;;
3779;SDS011;1905;52.482;9.802;2023-03-30T15:15:23;8.10;;;2.17;;
3779;SDS011;1905;52.482;9.802;2023-03-30T15:17:54;9.00;;;2.40;;
3779;SDS011;1905;52.482;9.802;2023-03-30T15:20:22;7.53;;;3.20;;
3779;SDS011;1905;52.482;9.802;2023-03-30T15:22:54;3.80;;;1.90;;
3779;SDS011;1905;52.482;9.802;2023-03-30T15:25:23;4.13;;;2.20;;
3779;SDS011;1905;52.482;9.802;2023-03-30T15:28:00;3.47;;;1.67;;
3779;SDS011;1905;52.482;9.802;2023-03-30T15:30:31;5.23;;;2.40;;
3779;SDS011;1905;52.482;9.802;2023-03-30T15:33:02;3.63;;;1.63;;
3779;SDS011;1905;52.482;9.802;2023-03-30T15:35:31;3.23;;;1.97;;
3779;SDS011;1905;52.482;9.802;2023-03-30T15:38:04;6.30;;;2.40;;
3779;SDS011;1905;52.482;9.802;2023-03-30T15:40:41;5.20;;;2.00;;
3779;SDS011;1905;52.482;9.802;2023-03-30T15:43:13;6.77;;;2.80;;
3779;SDS011;1905;52.482;9.802;2023-03-30T15:45:44;5.63;;;2.03;;
3779;SDS011;1905;52.482;9.802;2023-03-30T15:48:14;6.67;;;2.37;;
3779;SDS011;1905;52.482;9.802;2023-03-30T15:50:46;7.97;;;2.30;;
3779;SDS011;1905;52.482;9.802;2023-03-30T15:53:21;4.33;;;1.60;;
3779;SDS011;1905;52.482;9.802;2023-03-30T15:56:02;4.57;;;1.73;;
3779;SDS011;1905;52.482;9.802;2023-03-30T15:58:31;4.33;;;1.80;;
3779;SDS011;1905;52.482;9.802;2023-03-30T16:01:01;4.33;;;2.03;;
3779;SDS011;1905;52.482;9.802;2023-03-30T16:03:33;4.93;;;1.97;;
3779;SDS011;1905;52.482;9.802;2023-03-30T16:06:05;3.60;;;1.83;;
3779;SDS011;1905;52.482;9.802;2023-03-30T16:08:34;6.43;;;2.00;;
3779;SDS011;1905;52.482;9.802;2023-03-30T16:11:07;6.20;;;1.70;;
3779;SDS011;1905;52.482;9.802;2023-03-30T16:13:38;4.27;;;1.53;;
3779;SDS011;1905;52.482;9.802;2023-03-30T16:16:07;2.60;;;1.37;;
3779;SDS011;1905;52.482;9.802;2023-03-30T16:18:39;5.93;;;1.93;;